Time;durP1;ratioP1;P1;durP2;ratioP2;P2;SDS_P1;SDS_P2;PMS_P1;PMS_P2;Temp;Humidity;BMP_temperature;BMP_pressure;BME280_temperature;BME280_humidity;BME280_pressure;Samples;Min_cycle;Max_cycle;Signal;HPM_P1;HPM_P2
2021/06/25 00:01:52;;;;;;;2.92;2.58;;;19.70;99.90;;;;;;5071272;28;20594;-66
2021/06/25 00:04:19;;;;;;;2.67;2.22;;;19.80;99.90;;;;;;5071135;28;20244;-66
2021/06/25 00:06:46;;;;;;;3.33;2.50;;;19.80;99.90;;;;;;5071322;28;20212;-66
2021/06/25 00:09:14;;;;;;;3.78;2.30;;;19.90;99.90;;;;;;5071071;28;20220;-66
2021/06/25 00:11:41;;;;;;;2.22;2.03;;;19.90;99.90;;;;;;5071532;28;20471;-66
2021/06/25 00:14:08;;;;;;;2.80;2.38;;;20.00;99.90;;;;;;5071188;28;20225;-66
2021/06/25 00:16:35;;;;;;;3.13;2.28;;;19.90;99.90;;;;;;5071422;28;20216;-66
2021/06/25 00:19:02;;;;;;;2.38;2.17;;;20.00;99.90;;;;;;5071138;28;20216;-66
2021/06/25 00:21:28;;;;;;;3.38;2.55;;;20.00;99.90;;;;;;5070935;28;20228;-66
2021/06/25 00:23:55;;;;;;;5.45;4.93;;;20.10;99.90;;;;;;5071133;28;20229;-66
2021/06/25 00:26:23;;;;;;;4.75;2.78;;;20.10;99.90;;;;;;5071199;28;20209;-66
2021/06/25 00:28:50;;;;;;;3.58;2.50;;;20.00;99.90;;;;;;5070915;28;20209;-65
2021/06/25 00:31:16;;;;;;;2.50;2.30;;;20.10;99.90;;;;;;5071337;28;20223;-66
2021/06/25 00:33:43;;;;;;;4.88;2.53;;;20.10;99.90;;;;;;5071011;28;20236;-66
2021/06/25 00:36:10;;;;;;;4.82;2.40;;;20.10;99.90;;;;;;5070882;28;20204;-66
2021/06/25 00:38:36;;;;;;;3.92;2.20;;;20.10;99.90;;;;;;5071652;28;20204;-66
2021/06/25 00:41:03;;;;;;;2.47;2.10;;;20.20;99.90;;;;;;5072295;28;20229;-66
2021/06/25 00:43:31;;;;;;;2.65;2.45;;;20.20;99.90;;;;;;5071359;28;20236;-66
2021/06/25 00:45:58;;;;;;;2.38;2.17;;;20.20;99.90;;;;;;5071641;28;20201;-66
2021/06/25 00:48:24;;;;;;;3.58;2.22;;;20.20;99.90;;;;;;5070749;28;20238;-66
2021/06/25 00:50:51;;;;;;;2.58;2.13;;;20.20;99.90;;;;;;5070889;28;20201;-66
2021/06/25 00:53:19;;;;;;;2.35;2.15;;;20.20;99.90;;;;;;5070909;28;20276;-66
2021/06/25 00:55:45;;;;;;;2.40;2.20;;;20.20;99.90;;;;;;5070954;28;20669;-66
2021/06/25 00:58:14;;;;;;;2.83;2.13;;;20.30;99.90;;;;;;5070942;28;20630;-66
2021/06/25 01:00:43;;;;;;;3.28;2.25;;;20.30;99.90;;;;;;5070918;28;20236;-66
2021/06/25 01:03:10;;;;;;;2.30;2.00;;;20.30;99.90;;;;;;5070885;28;20243;-66
2021/06/25 01:05:37;;;;;;;4.75;2.50;;;20.30;99.90;;;;;;5070692;28;20219;-66
2021/06/25 01:08:06;;;;;;;5.30;2.10;;;20.30;99.90;;;;;;5070778;28;20409;-66
2021/06/25 01:10:33;;;;;;;3.95;2.00;;;20.30;99.90;;;;;;5070672;28;20247;-66
2021/06/25 01:13:00;;;;;;;2.67;2.10;;;20.30;99.90;;;;;;5070626;28;20228;-66
2021/06/25 01:15:27;;;;;;;2.10;1.90;;;20.20;99.90;;;;;;5070552;28;20215;-67
2021/06/25 01:17:55;;;;;;;5.13;2.22;;;20.20;99.90;;;;;;5070249;28;20213;-66
2021/06/25 01:20:25;;;;;;;2.35;2.15;;;20.20;99.90;;;;;;5070541;28;20212;-67
2021/06/25 01:22:53;;;;;;;2.22;2.03;;;20.20;99.90;;;;;;5070541;28;20232;-67
2021/06/25 01:25:23;;;;;;;3.42;2.25;;;20.20;99.90;;;;;;5071244;28;20677;-67
2021/06/25 01:27:51;;;;;;;2.47;2.28;;;20.20;99.90;;;;;;5073426;28;20437;-67
2021/06/25 01:30:21;;;;;;;3.80;2.20;;;20.20;99.90;;;;;;5071795;28;20212;-67
2021/06/25 01:32:49;;;;;;;4.15;2.30;;;20.20;99.90;;;;;;5073208;28;20229;-67
2021/06/25 01:35:16;;;;;;;4.55;2.05;;;20.20;99.90;;;;;;5074385;28;20201;-67
2021/06/25 01:37:43;;;;;;;2.83;2.10;;;20.20;99.90;;;;;;5074203;28;20272;-66
2021/06/25 01:40:14;;;;;;;2.33;1.90;;;20.20;99.90;;;;;;5074149;28;20208;-67
2021/06/25 01:42:43;;;;;;;4.18;2.33;;;20.10;99.90;;;;;;5074044;28;20583;-66
2021/06/25 01:45:11;;;;;;;3.35;2.25;;;20.00;99.90;;;;;;5073661;28;20223;-66
2021/06/25 01:47:39;;;;;;;3.60;2.20;;;19.90;99.90;;;;;;5074169;28;20304;-66
2021/06/25 01:50:08;;;;;;;2.60;2.40;;;19.90;99.90;;;;;;5074227;28;20219;-66
2021/06/25 01:52:35;;;;;;;3.20;2.30;;;19.80;99.90;;;;;;5074019;28;20248;-66
2021/06/25 01:55:02;;;;;;;3.53;2.60;;;19.80;99.90;;;;;;5073803;28;20212;-66
2021/06/25 01:57:32;;;;;;;3.53;2.70;;;19.70;99.90;;;;;;5073835;28;20205;-66
2021/06/25 02:00:00;;;;;;;2.47;2.28;;;19.70;99.90;;;;;;5074054;28;20590;-66
2021/06/25 02:02:26;;;;;;;4.25;2.45;;;19.70;99.90;;;;;;5073996;28;20616;-66
2021/06/25 02:04:53;;;;;;;5.40;2.88;;;19.60;99.90;;;;;;5073762;28;20209;-66
2021/06/25 02:07:20;;;;;;;3.03;2.70;;;19.60;99.90;;;;;;5073837;28;20212;-66
2021/06/25 02:09:47;;;;;;;3.20;2.83;;;19.60;99.90;;;;;;5073838;28;20201;-66
2021/06/25 02:12:13;;;;;;;3.28;2.90;;;19.60;99.90;;;;;;5074186;28;20736;-66
2021/06/25 02:14:41;;;;;;;3.90;2.78;;;19.60;99.90;;;;;;5074446;28;20205;-66
2021/06/25 02:17:08;;;;;;;3.28;2.97;;;19.60;99.90;;;;;;5074082;28;20677;-66
2021/06/25 02:19:35;;;;;;;7.40;2.95;;;19.60;99.90;;;;;;5073856;28;20216;-66
2021/06/25 02:22:02;;;;;;;2.78;2.50;;;19.60;99.90;;;;;;5073717;28;20235;-66
2021/06/25 02:24:29;;;;;;;5.78;2.92;;;19.70;99.90;;;;;;5073204;28;20216;-66
2021/06/25 02:26:55;;;;;;;3.55;2.50;;;19.70;99.90;;;;;;5073750;28;20208;-66
2021/06/25 02:29:22;;;;;;;3.58;2.13;;;19.70;99.90;;;;;;5073214;28;20212;-66
2021/06/25 02:31:50;;;;;;;2.78;2.53;;;19.60;99.90;;;;;;5073238;28;20548;-66
2021/06/25 02:34:17;;;;;;;6.82;2.88;;;19.60;99.90;;;;;;5073729;28;20274;-66
2021/06/25 02:36:44;;;;;;;3.15;2.47;;;19.50;99.90;;;;;;5074109;28;20201;-66
2021/06/25 02:39:11;;;;;;;2.50;2.30;;;19.50;99.90;;;;;;5072842;28;20208;-66
2021/06/25 02:41:37;;;;;;;3.38;3.00;;;19.50;99.90;;;;;;5073271;28;20700;-67
2021/06/25 02:44:05;;;;;;;2.85;2.55;;;19.50;99.90;;;;;;5072794;28;20239;-66
2021/06/25 02:46:31;;;;;;;2.60;2.40;;;19.60;99.90;;;;;;5073401;28;20205;-66
2021/06/25 02:48:59;;;;;;;3.28;2.80;;;19.60;99.90;;;;;;5073132;28;20248;-66
2021/06/25 02:51:26;;;;;;;4.18;2.60;;;19.50;99.90;;;;;;5072960;28;20699;-66
2021/06/25 02:53:53;;;;;;;3.92;2.70;;;19.50;99.90;;;;;;5072806;28;20228;-66
2021/06/25 02:56:20;;;;;;;3.45;3.10;;;19.40;99.90;;;;;;5072831;28;20578;-66
2021/06/25 02:58:46;;;;;;;3.92;2.92;;;19.30;99.90;;;;;;5072535;28;20212;-66
2021/06/25 03:01:13;;;;;;;4.35;2.85;;;19.20;99.90;;;;;;5072653;28;20612;-66
2021/06/25 03:03:40;;;;;;;3.50;3.05;;;19.20;99.90;;;;;;5072451;28;20233;-66
2021/06/25 03:06:08;;;;;;;3.28;2.97;;;19.20;99.90;;;;;;5072467;28;20668;-66
2021/06/25 03:08:35;;;;;;;3.88;2.88;;;19.30;99.90;;;;;;5072401;28;20219;-66
2021/06/25 03:11:02;;;;;;;4.85;3.53;;;19.30;99.90;;;;;;5072605;28;20798;-66
2021/06/25 03:13:29;;;;;;;3.47;3.17;;;19.30;99.90;;;;;;5072309;28;20224;-66
2021/06/25 03:15:56;;;;;;;3.42;3.03;;;19.30;99.90;;;;;;5072718;28;20200;-66
2021/06/25 03:18:22;;;;;;;5.60;3.25;;;19.30;99.90;;;;;;5072324;28;20216;-66
2021/06/25 03:20:49;;;;;;;3.40;3.10;;;19.30;99.90;;;;;;5072288;28;20691;-67
2021/06/25 03:23:17;;;;;;;3.13;2.83;;;19.30;99.90;;;;;;5072555;28;20228;-66
2021/06/25 03:25:44;;;;;;;3.50;3.20;;;19.30;99.90;;;;;;5072180;28;20601;-67
2021/06/25 03:28:11;;;;;;;2.88;2.45;;;19.30;99.90;;;;;;5071863;28;20207;-66
2021/06/25 03:30:38;;;;;;;3.10;2.80;;;19.40;99.90;;;;;;5072102;28;20208;-66
2021/06/25 03:33:05;;;;;;;3.33;3.03;;;19.30;99.90;;;;;;5071854;28;20228;-66
2021/06/25 03:35:32;;;;;;;3.10;2.67;;;19.30;99.90;;;;;;5071812;28;20235;-66
2021/06/25 03:37:59;;;;;;;3.95;3.08;;;19.30;99.90;;;;;;5071904;28;20657;-66
2021/06/25 03:40:30;;;;;;;3.22;2.70;;;19.20;99.90;;;;;;5071871;28;20212;-66
2021/06/25 03:42:57;;;;;;;4.82;3.70;;;19.10;99.90;;;;;;5071649;28;20607;-66
2021/06/25 03:45:24;;;;;;;7.25;4.75;;;19.10;99.90;;;;;;5071699;28;20366;-66
2021/06/25 03:47:51;;;;;;;3.65;3.10;;;19.10;99.90;;;;;;5071336;28;20208;-67
2021/06/25 03:50:18;;;;;;;5.78;3.70;;;19.10;99.90;;;;;;5072028;28;20213;-67
2021/06/25 03:52:45;;;;;;;3.65;3.08;;;19.10;99.90;;;;;;5071779;28;20232;-67
2021/06/25 03:55:12;;;;;;;3.47;3.15;;;19.10;99.90;;;;;;5070916;28;20205;-67
2021/06/25 03:57:42;;;;;;;6.65;3.45;;;19.10;99.90;;;;;;5071457;28;20704;-67
2021/06/25 04:00:11;;;;;;;4.30;3.33;;;19.10;99.90;;;;;;5071424;28;20299;-67
2021/06/25 04:02:37;;;;;;;3.30;3.00;;;19.20;99.90;;;;;;5071162;28;20256;-67
2021/06/25 04:05:05;;;;;;;4.22;3.83;;;19.20;99.90;;;;;;5071585;28;20220;-67
2021/06/25 04:07:32;;;;;;;7.10;3.58;;;19.30;99.90;;;;;;5071320;28;20209;-67
2021/06/25 04:09:59;;;;;;;7.13;3.83;;;19.30;99.90;;;;;;5071694;28;20205;-67
2021/06/25 04:12:25;;;;;;;4.13;3.60;;;19.30;99.90;;;;;;5071568;28;20693;-67
2021/06/25 04:14:53;;;;;;;4.50;4.07;;;19.30;99.90;;;;;;5071218;28;20207;-66
2021/06/25 04:17:20;;;;;;;7.00;4.10;;;19.30;99.90;;;;;;5071180;28;20228;-67
2021/06/25 04:19:47;;;;;;;6.15;3.88;;;19.30;99.90;;;;;;5071498;28;20232;-66
2021/06/25 04:22:14;;;;;;;4.50;3.95;;;19.40;99.90;;;;;;5071056;28;20247;-65
2021/06/25 04:24:40;;;;;;;5.10;4.07;;;19.40;99.90;;;;;;5070976;28;20296;-66
2021/06/25 04:27:08;;;;;;;5.78;3.88;;;19.40;99.90;;;;;;5070926;28;20586;-66
2021/06/25 04:29:35;;;;;;;4.13;3.72;;;19.50;99.90;;;;;;5070711;28;20208;-68
2021/06/25 04:32:03;;;;;;;4.13;3.72;;;19.50;99.90;;;;;;5071361;28;20201;-66
2021/06/25 04:34:30;;;;;;;3.95;3.55;;;19.50;99.90;;;;;;5070952;28;20209;-66
2021/06/25 04:36:57;;;;;;;6.43;4.60;;;19.60;99.90;;;;;;5070868;28;20564;-66
2021/06/25 04:39:23;;;;;;;4.13;3.72;;;19.60;99.90;;;;;;5071549;28;20669;-67
2021/06/25 04:41:50;;;;;;;4.32;3.92;;;19.80;99.90;;;;;;5071380;28;20224;-66
2021/06/25 04:44:17;;;;;;;4.72;4.32;;;19.80;99.90;;;;;;5071459;28;20248;-67
2021/06/25 04:46:44;;;;;;;6.35;4.18;;;19.80;99.90;;;;;;5071620;28;20207;-67
2021/06/25 04:49:12;;;;;;;4.50;4.10;;;19.80;99.90;;;;;;5072074;28;20253;-67
2021/06/25 04:51:39;;;;;;;3.65;3.35;;;19.90;99.90;;;;;;5073436;28;20204;-67
2021/06/25 04:54:06;;;;;;;11.40;3.95;;;20.00;99.90;;;;;;5072817;28;20232;-67
2021/06/25 04:56:32;;;;;;;4.32;3.92;;;20.10;99.90;;;;;;5072737;28;20239;-67
2021/06/25 04:58:59;;;;;;;3.70;3.40;;;20.20;99.90;;;;;;5071859;28;20231;-67
2021/06/25 05:01:26;;;;;;;5.35;3.85;;;20.30;99.90;;;;;;5071948;28;20212;-66
2021/06/25 05:03:52;;;;;;;8.55;3.40;;;20.30;99.90;;;;;;5070977;28;20631;-67
2021/06/25 05:06:20;;;;;;;5.72;4.03;;;20.30;99.90;;;;;;5072572;28;20591;-67
2021/06/25 05:08:47;;;;;;;4.82;4.32;;;20.30;99.90;;;;;;5075692;28;20687;-66
2021/06/25 05:11:14;;;;;;;4.70;4.20;;;20.20;99.90;;;;;;5076081;28;20212;-67
2021/06/25 05:13:40;;;;;;;3.80;2.25;;;20.20;99.90;;;;;;5075642;28;20232;-67
2021/06/25 05:16:07;;;;;;;4.10;2.85;;;20.30;99.90;;;;;;5076199;28;20205;-67
2021/06/25 05:18:34;;;;;;;3.65;3.05;;;20.30;99.90;;;;;;5077227;28;20580;-67
2021/06/25 05:21:00;;;;;;;5.57;2.47;;;20.30;99.90;;;;;;5077610;28;20212;-67
2021/06/25 05:23:29;;;;;;;3.38;1.80;;;20.30;99.90;;;;;;5076805;28;20235;-67
2021/06/25 05:25:56;;;;;;;5.75;2.80;;;20.30;99.90;;;;;;5077002;28;20216;-67
2021/06/25 05:28:23;;;;;;;4.07;2.05;;;20.30;99.90;;;;;;5075427;28;20273;-67
2021/06/25 05:30:50;;;;;;;14.90;11.63;;;20.40;99.90;;;;;;5075775;28;20217;-67
2021/06/25 05:33:16;;;;;;;5.85;2.50;;;20.40;99.90;;;;;;5075964;28;20225;-67
2021/06/25 05:35:43;;;;;;;4.95;3.63;;;20.40;99.90;;;;;;5075692;28;20624;-67
2021/06/25 05:38:14;;;;;;;5.43;2.10;;;20.40;99.90;;;;;;5075188;28;20209;-67
2021/06/25 05:40:42;;;;;;;3.95;2.40;;;20.40;99.90;;;;;;5074409;28;20665;-67
2021/06/25 05:43:09;;;;;;;3.65;1.80;;;20.40;99.90;;;;;;5074220;28;20228;-67
2021/06/25 05:45:37;;;;;;;1.52;1.42;;;20.40;99.90;;;;;;5073846;28;20208;-67
2021/06/25 05:48:05;;;;;;;2.72;1.83;;;20.20;99.90;;;;;;5074274;28;20220;-67
2021/06/25 05:50:32;;;;;;;2.13;1.75;;;20.10;99.90;;;;;;5074314;28;20201;-67
2021/06/25 05:52:59;;;;;;;3.70;1.77;;;20.00;99.90;;;;;;5073979;28;20232;-67
2021/06/25 05:55:26;;;;;;;3.30;3.00;;;19.90;99.90;;;;;;5073776;28;20676;-67
2021/06/25 05:57:54;;;;;;;4.15;3.53;;;19.90;99.90;;;;;;5074306;28;20207;-67
2021/06/25 06:00:21;;;;;;;7.45;6.10;;;19.90;99.90;;;;;;5074103;28;20208;-67
2021/06/25 06:02:48;;;;;;;3.97;3.30;;;19.90;99.90;;;;;;5074069;28;20232;-68
2021/06/25 06:05:15;;;;;;;2.22;2.03;;;20.00;99.90;;;;;;5074113;28;20227;-68
2021/06/25 06:07:42;;;;;;;2.33;2.10;;;20.20;99.90;;;;;;5074034;28;20208;-68
2021/06/25 06:10:11;;;;;;;2.65;2.15;;;20.30;99.90;;;;;;5074479;28;20209;-67
2021/06/25 06:12:38;;;;;;;3.15;2.40;;;20.60;99.90;;;;;;5074864;28;20235;-67
2021/06/25 06:15:07;;;;;;;4.03;2.40;;;20.90;99.90;;;;;;5074639;28;20208;-67
2021/06/25 06:17:37;;;;;;;2.60;2.40;;;21.30;99.90;;;;;;5073696;28;20631;-67
2021/06/25 06:20:05;;;;;;;2.50;2.25;;;21.60;99.90;;;;;;5073746;28;20585;-68
2021/06/25 06:33:34;;;;;;;6.45;3.17;;;22.10;99.90;;;;;;5073947;28;20305;-67
2021/06/25 06:36:03;;;;;;;3.15;2.85;;;22.20;99.90;;;;;;5074130;28;20256;-67
2021/06/25 06:38:30;;;;;;;4.63;3.10;;;22.20;99.90;;;;;;5073600;28;20219;-68
2021/06/25 06:40:57;;;;;;;3.60;3.30;;;22.20;99.90;;;;;;5073010;28;20209;-67
2021/06/25 06:43:24;;;;;;;3.10;2.80;;;22.20;99.90;;;;;;5073094;28;20248;-67
2021/06/25 06:45:52;;;;;;;3.58;3.28;;;22.20;99.90;;;;;;5073159;28;20212;-67
2021/06/25 06:48:19;;;;;;;2.92;2.72;;;22.10;99.90;;;;;;5072988;28;20205;-67
2021/06/25 06:50:45;;;;;;;2.90;2.42;;;22.00;99.90;;;;;;5072706;28;20204;-68
2021/06/25 06:53:12;;;;;;;3.33;3.03;;;22.00;99.90;;;;;;5072622;28;20649;-68
2021/06/25 06:55:43;;;;;;;4.00;3.65;;;21.90;99.90;;;;;;5072729;28;20205;-67
2021/06/25 06:58:11;;;;;;;3.40;3.08;;;21.70;99.90;;;;;;5073303;28;20215;-67
2021/06/25 07:00:38;;;;;;;3.72;2.88;;;21.70;99.90;;;;;;5073464;28;20239;-68
2021/06/25 07:03:06;;;;;;;2.85;2.53;;;21.60;99.90;;;;;;5072814;28;20700;-67
2021/06/25 07:05:33;;;;;;;2.88;2.65;;;21.50;99.90;;;;;;5072314;28;20200;-67
2021/06/25 07:08:00;;;;;;;3.58;2.70;;;21.50;99.90;;;;;;5072213;28;20204;-68
2021/06/25 07:10:27;;;;;;;3.17;2.88;;;21.30;99.90;;;;;;5072844;28;20212;-67
2021/06/25 07:12:53;;;;;;;4.28;2.60;;;21.30;99.90;;;;;;5072964;28;20582;-68
2021/06/25 07:15:20;;;;;;;4.78;4.07;;;21.20;99.90;;;;;;5072715;28;20209;-68
2021/06/25 07:17:47;;;;;;;5.68;4.75;;;21.30;99.90;;;;;;5072755;28;20212;-68
2021/06/25 07:20:15;;;;;;;4.32;3.70;;;21.30;99.90;;;;;;5072474;28;20716;-67
2021/06/25 07:22:43;;;;;;;3.35;2.90;;;21.40;99.90;;;;;;5072430;28;20236;-68
2021/06/25 07:25:10;;;;;;;2.60;2.40;;;21.50;99.90;;;;;;5072675;28;20215;-68
2021/06/25 07:27:37;;;;;;;6.10;5.38;;;21.60;99.90;;;;;;5072605;28;20216;-68
2021/06/25 07:30:05;;;;;;;3.00;2.70;;;21.70;99.90;;;;;;5071712;28;20204;-68
2021/06/25 07:32:31;;;;;;;2.50;2.30;;;21.90;99.90;;;;;;5073140;28;20221;-68
2021/06/25 07:34:58;;;;;;;2.80;2.15;;;22.10;99.90;;;;;;5072399;28;20209;-68
2021/06/25 07:37:26;;;;;;;5.95;2.60;;;22.20;99.90;;;;;;5072480;28;20636;-68
2021/06/25 07:39:53;;;;;;;4.28;2.58;;;22.30;99.90;;;;;;5072533;28;20582;-68
2021/06/25 07:42:21;;;;;;;3.28;2.97;;;22.60;99.90;;;;;;5072094;28;20233;-68
2021/06/25 07:44:49;;;;;;;2.15;1.98;;;22.90;99.90;;;;;;5072502;28;20566;-68
2021/06/25 07:47:16;;;;;;;2.53;2.33;;;23.10;99.90;;;;;;5073196;28;20212;-68
2021/06/25 07:49:43;;;;;;;2.83;2.63;;;23.30;99.90;;;;;;5072447;28;20212;-68
2021/06/25 07:52:10;;;;;;;2.92;2.65;;;23.60;99.90;;;;;;5072651;28;20205;-68
2021/06/25 07:54:38;;;;;;;2.50;2.30;;;23.90;99.90;;;;;;5072436;28;20201;-68
2021/06/25 07:57:06;;;;;;;2.80;2.60;;;24.20;99.90;;;;;;5072960;28;20205;-68
2021/06/25 07:59:32;;;;;;;3.50;2.90;;;24.20;99.90;;;;;;5072419;28;20205;-68
2021/06/25 08:02:00;;;;;;;3.70;2.80;;;24.20;99.90;;;;;;5072154;28;20205;-68
2021/06/25 08:04:29;;;;;;;3.40;3.10;;;24.20;99.90;;;;;;5085716;22;20232;-57
2021/06/25 08:06:55;;;;;;;5.50;3.38;;;24.00;99.90;;;;;;5071445;28;20209;-57
2021/06/25 08:09:22;;;;;;;5.65;3.35;;;23.80;99.90;;;;;;5071301;28;20213;-57
2021/06/25 08:11:51;;;;;;;3.88;3.58;;;23.60;99.90;;;;;;5071195;28;20208;-58
2021/06/25 08:14:18;;;;;;;3.90;3.55;;;23.50;99.90;;;;;;5070874;28;20221;-57
2021/06/25 08:16:44;;;;;;;4.13;3.65;;;23.40;99.90;;;;;;5070864;28;20201;-57
2021/06/25 08:19:11;;;;;;;5.88;4.55;;;23.30;99.90;;;;;;5070697;28;20668;-58
2021/06/25 08:21:38;;;;;;;6.95;5.57;;;23.20;99.90;;;;;;5070968;28;20209;-58
2021/06/25 08:24:06;;;;;;;6.90;6.20;;;23.10;99.90;;;;;;5071590;28;20228;-57
2021/06/25 08:26:32;;;;;;;6.63;4.47;;;23.30;99.90;;;;;;5073679;28;20212;-57
2021/06/25 08:29:00;;;;;;;6.65;4.13;;;23.50;99.90;;;;;;5072496;28;20212;-58
2021/06/25 08:31:27;;;;;;;8.57;5.82;;;23.80;99.90;;;;;;5071484;28;20205;-57
2021/06/25 08:33:54;;;;;;;5.78;5.18;;;24.00;99.90;;;;;;5070717;28;20221;-58
2021/06/25 08:36:24;;;;;;;7.55;4.85;;;24.10;99.90;;;;;;5071011;28;20311;-57
2021/06/25 08:38:50;;;;;;;5.57;4.82;;;24.10;99.90;;;;;;5070883;28;20663;-58
2021/06/25 08:41:17;;;;;;;4.80;4.40;;;24.30;99.90;;;;;;5069942;28;20212;-58
2021/06/25 08:43:44;;;;;;;4.97;4.40;;;24.70;99.90;;;;;;5070208;28;20229;-56
2021/06/25 08:46:12;;;;;;;4.70;4.30;;;25.00;99.90;;;;;;5070544;28;20204;-58
2021/06/25 08:48:39;;;;;;;6.22;4.53;;;25.30;99.90;;;;;;5070695;28;20213;-57
2021/06/25 08:51:09;;;;;;;8.57;4.22;;;25.60;99.90;;;;;;5070543;28;20219;-56
2021/06/25 08:53:36;;;;;;;6.28;4.75;;;25.80;99.90;;;;;;5070407;28;20223;-56
2021/06/25 08:56:03;;;;;;;8.43;5.10;;;25.70;99.90;;;;;;5070388;28;20225;-58
2021/06/25 08:58:30;;;;;;;7.93;5.65;;;25.40;99.90;;;;;;5070236;28;20208;-56
2021/06/25 09:00:59;;;;;;;4.88;3.97;;;24.90;99.90;;;;;;5070432;28;20706;-56
2021/06/25 09:03:28;;;;;;;2.30;1.63;;;24.20;99.90;;;;;;5070014;28;20224;-56
2021/06/25 09:06:09;;;;;;;4.07;1.60;;;23.60;99.90;;;;;;5070529;28;20295;-55
2021/06/25 09:08:36;;;;;;;2.40;1.73;;;23.00;99.90;;;;;;5070271;28;20346;-57
2021/06/25 09:11:18;;;;;;;3.55;1.50;;;22.70;99.90;;;;;;5070226;28;20216;-57
2021/06/25 09:13:45;;;;;;;1.15;1.05;;;22.40;99.90;;;;;;5070410;28;20271;-57
2021/06/25 09:16:23;;;;;;;1.38;1.20;;;22.30;99.90;;;;;;5070607;28;20208;-57
2021/06/25 09:19:00;;;;;;;1.40;1.30;;;22.40;99.90;;;;;;5070557;28;20200;-57
2021/06/25 09:21:28;;;;;;;1.58;1.48;;;22.50;99.90;;;;;;5070149;28;20209;-57
2021/06/25 09:23:55;;;;;;;1.58;1.40;;;22.70;99.90;;;;;;5070207;28;20251;-58
2021/06/25 09:26:23;;;;;;;2.22;1.60;;;22.70;99.90;;;;;;5070270;28;20209;-56
2021/06/25 09:28:52;;;;;;;2.00;1.70;;;22.80;99.90;;;;;;5070448;28;20208;-56
2021/06/25 09:31:22;;;;;;;1.45;1.30;;;22.70;99.90;;;;;;5070198;28;20209;-57
2021/06/25 09:33:50;;;;;;;1.75;1.60;;;22.80;99.90;;;;;;5070000;28;20708;-55
2021/06/25 09:36:23;;;;;;;2.40;1.83;;;22.90;99.90;;;;;;5069943;28;20220;-56
2021/06/25 09:38:58;;;;;;;2.40;2.20;;;23.00;99.90;;;;;;5070007;28;20220;-60
2021/06/25 09:41:25;;;;;;;2.58;2.38;;;23.10;99.90;;;;;;5069913;28;20209;-57
2021/06/25 09:43:56;;;;;;;6.53;5.88;;;23.10;99.90;;;;;;5069796;28;20220;-58
2021/06/25 09:46:27;;;;;;;3.13;2.80;;;22.90;99.90;;;;;;5070280;28;20209;-57
2021/06/25 09:48:56;;;;;;;3.35;2.80;;;22.80;99.90;;;;;;5070152;28;20209;-58
2021/06/25 09:51:24;;;;;;;3.40;2.92;;;22.60;99.90;;;;;;5070142;28;20216;-58
2021/06/25 09:54:08;;;;;;;3.80;2.58;;;22.50;99.90;;;;;;5071596;28;20217;-58
2021/06/25 09:56:38;;;;;;;3.92;3.08;;;22.30;99.90;;;;;;5073717;28;20212;-58
2021/06/25 09:59:24;;;;;;;3.85;3.15;;;22.20;99.90;;;;;;5073822;28;20709;-57
2021/06/25 10:01:50;;;;;;;3.75;3.28;;;22.10;99.90;;;;;;5073768;28;20301;-58
2021/06/25 10:04:16;;;;;;;4.07;3.65;;;22.00;99.90;;;;;;5073297;28;20328;-59
2021/06/25 10:06:45;;;;;;;5.47;4.18;;;22.10;99.90;;;;;;5073564;28;20586;-57
2021/06/25 10:09:11;;;;;;;4.60;4.20;;;22.20;99.90;;;;;;5073243;28;20703;-57
2021/06/25 10:11:38;;;;;;;5.10;4.53;;;22.30;99.90;;;;;;5073462;28;20683;-59
2021/06/25 10:14:06;;;;;;;5.57;4.97;;;22.40;99.90;;;;;;5073518;28;20259;-59
2021/06/25 10:16:32;;;;;;;5.93;5.40;;;22.40;99.90;;;;;;5073058;28;20205;-57
2021/06/25 10:19:00;;;;;;;7.90;7.10;;;22.40;99.90;;;;;;5073010;28;20212;-56
2021/06/25 10:21:29;;;;;;;9.30;7.45;;;22.30;99.90;;;;;;5073198;28;20722;-58
2021/06/25 10:23:59;;;;;;;7.28;6.57;;;22.30;99.90;;;;;;5072715;28;20233;-55
2021/06/25 10:26:26;;;;;;;6.82;5.72;;;22.40;99.90;;;;;;5073222;28;20213;-57
2021/06/25 10:28:54;;;;;;;6.78;6.07;;;22.50;99.90;;;;;;5072938;28;20224;-57
2021/06/25 10:31:23;;;;;;;7.82;7.03;;;22.70;99.90;;;;;;5072975;28;20242;-56
2021/06/25 10:33:50;;;;;;;7.68;6.97;;;23.00;99.90;;;;;;5072593;28;20225;-55
2021/06/25 10:36:22;;;;;;;11.02;7.07;;;23.10;99.90;;;;;;5072418;28;20235;-55
2021/06/25 10:38:49;;;;;;;7.50;6.80;;;23.20;99.90;;;;;;5072857;28;20236;-58
2021/06/25 10:41:18;;;;;;;10.32;9.25;;;23.20;99.90;;;;;;5072751;28;20209;-55
2021/06/25 10:43:48;;;;;;;14.50;13.00;;;23.30;99.90;;;;;;5072266;28;20290;-56
2021/06/25 10:46:33;;;;;;;9.80;7.38;;;23.40;99.90;;;;;;5072359;28;20245;-56
2021/06/25 10:49:03;;;;;;;9.75;7.63;;;23.40;99.90;;;;;;5072763;28;20201;-58
2021/06/25 10:51:33;;;;;;;9.18;8.25;;;23.50;99.90;;;;;;5072720;28;20205;-55
2021/06/25 10:54:11;;;;;;;11.10;9.07;;;23.50;99.90;;;;;;5072450;28;20239;-56
2021/06/25 10:56:41;;;;;;;10.37;9.37;;;23.30;99.90;;;;;;5059705;28;20493;-62
2021/06/25 10:59:22;;;;;;;9.82;8.63;;;23.20;99.90;;;;;;5052132;28;20213;-59
2021/06/25 11:01:54;;;;;;;11.20;8.82;;;23.20;99.90;;;;;;5052519;28;20228;-59
2021/06/25 11:04:35;;;;;;;9.90;8.90;;;23.10;99.90;;;;;;5051461;28;20704;-58
2021/06/25 11:07:06;;;;;;;11.73;10.57;;;22.90;99.90;;;;;;5052046;28;20699;-59
2021/06/25 11:09:56;;;;;;;10.00;8.75;;;22.90;99.90;;;;;;5052059;28;20248;-60
2021/06/25 11:12:29;;;;;;;11.38;10.20;;;22.80;99.90;;;;;;5052241;28;20228;-59
2021/06/25 11:15:17;;;;;;;10.63;9.55;;;22.70;99.90;;;;;;5052129;28;20208;-57
2021/06/25 11:17:50;;;;;;;12.57;11.18;;;22.70;99.90;;;;;;5051784;28;20236;-56
2021/06/25 11:20:23;;;;;;;13.52;11.70;;;22.50;99.90;;;;;;5052312;28;20236;-59
2021/06/25 11:23:12;;;;;;;16.35;11.30;;;22.90;99.90;;;;;;5051957;28;20236;-59
2021/06/25 11:25:46;;;;;;;14.07;11.65;;;23.10;99.90;;;;;;5051892;28;20338;-59
2021/06/25 11:28:38;;;;;;;15.55;12.27;;;23.40;99.90;;;;;;5051384;28;20643;-59
2021/06/25 11:31:20;;;;;;;12.65;11.38;;;23.60;99.90;;;;;;5052004;28;20577;-59
2021/06/25 11:33:56;;;;;;;12.40;11.10;;;23.80;99.90;;;;;;5051741;28;20320;-59
2021/06/25 11:36:41;;;;;;;14.52;12.80;;;24.10;99.90;;;;;;5051721;28;20201;-59
2021/06/25 11:39:28;;;;;;;12.98;11.68;;;24.20;99.90;;;;;;5051480;28;20669;-58
2021/06/25 11:41:59;;;;;;;13.50;11.98;;;24.20;99.90;;;;;;5051356;28;20213;-58
2021/06/25 11:44:28;;;;;;;14.63;12.30;;;24.30;99.90;;;;;;5050929;28;20268;-58
2021/06/25 11:47:02;;;;;;;13.27;11.88;;;24.50;99.90;;;;;;5051197;28;20248;-59
2021/06/25 11:49:40;;;;;;;16.67;13.30;;;24.60;99.90;;;;;;5051477;28;20214;-58
2021/06/25 11:52:13;;;;;;;15.10;12.15;;;24.80;99.90;;;;;;5051350;28;20317;-58
2021/06/25 11:54:41;;;;;;;12.88;11.40;;;24.80;99.90;;;;;;5051123;28;20308;-58
2021/06/25 11:57:17;;;;;;;15.05;13.40;;;25.00;99.90;;;;;;5051119;28;20435;-61
2021/06/25 12:00:00;;;;;;;14.68;11.60;;;25.30;99.90;;;;;;5050816;28;20212;-62
2021/06/25 12:02:27;;;;;;;13.25;11.02;;;25.60;99.90;;;;;;5051060;28;20215;-59
2021/06/25 12:04:58;;;;;;;12.73;11.40;;;25.80;99.90;;;;;;5051496;28;20233;-59
2021/06/25 12:07:25;;;;;;;12.88;11.63;;;25.70;99.90;;;;;;5050776;28;20209;-58
2021/06/25 12:09:54;;;;;;;12.32;10.52;;;25.60;99.90;;;;;;5050796;28;20216;-58
2021/06/25 12:12:29;;;;;;;12.05;10.85;;;25.50;99.90;;;;;;5051105;28;20206;-63
2021/06/25 12:14:59;;;;;;;12.57;10.98;;;25.50;99.90;;;;;;5051005;28;20209;-58
2021/06/25 12:17:40;;;;;;;12.25;10.77;;;25.50;99.90;;;;;;5050251;28;20217;-57
2021/06/25 12:20:10;;;;;;;12.63;11.32;;;25.70;99.90;;;;;;5050784;28;20205;-57
2021/06/25 12:22:48;;;;;;;11.18;10.05;;;25.80;99.90;;;;;;5050905;28;20236;-58
2021/06/25 12:25:15;;;;;;;13.30;10.75;;;25.90;99.90;;;;;;5050956;28;20236;-58
2021/06/25 12:27:43;;;;;;;11.35;10.25;;;25.90;99.90;;;;;;5050879;28;20205;-58
2021/06/25 12:30:14;;;;;;;10.68;9.68;;;25.90;99.90;;;;;;5050835;28;20212;-58
2021/06/25 12:32:41;;;;;;;11.57;9.75;;;25.90;99.90;;;;;;5051122;28;20317;-59
2021/06/25 12:35:11;;;;;;;9.40;8.15;;;25.80;99.90;;;;;;5051022;28;20209;-59
2021/06/25 12:37:52;;;;;;;9.95;8.95;;;25.60;99.90;;;;;;5050861;28;20205;-58
2021/06/25 12:40:39;;;;;;;9.77;8.15;;;25.30;99.90;;;;;;5050828;28;20206;-59
2021/06/25 12:43:06;;;;;;;9.25;8.35;;;25.30;99.90;;;;;;5050935;28;20235;-59
2021/06/25 12:45:42;;;;;;;9.18;8.27;;;25.40;99.90;;;;;;5050211;28;20708;-59
2021/06/25 12:48:11;;;;;;;10.48;9.43;;;25.50;99.90;;;;;;5050621;28;20208;-60
2021/06/25 12:50:42;;;;;;;13.27;9.32;;;25.60;99.90;;;;;;5050663;28;20677;-61
2021/06/25 12:53:14;;;;;;;10.20;9.07;;;25.70;99.90;;;;;;5050633;28;20673;-60
2021/06/25 12:55:44;;;;;;;11.52;9.02;;;25.70;99.90;;;;;;5050283;28;20205;-60
2021/06/25 12:58:11;;;;;;;10.23;9.20;;;25.80;99.90;;;;;;5050590;28;20205;-60
2021/06/25 13:00:38;;;;;;;9.30;8.50;;;25.90;99.90;;;;;;5050654;28;20213;-59
2021/06/25 13:03:05;;;;;;;9.43;8.52;;;26.20;99.90;;;;;;5050435;28;20241;-60